createdAt,value
2023-07-22T00:04:41.764Z,12.12
2023-07-22T00:09:44.372Z,12.18
2023-07-22T00:14:46.083Z,12.29
2023-07-22T00:19:49.131Z,12.43
2023-07-22T00:24:50.850Z,12.52
2023-07-22T00:29:52.546Z,12.60
2023-07-22T00:34:54.308Z,12.70
2023-07-22T00:39:56.312Z,12.79
2023-07-22T00:44:58.174Z,12.82
2023-07-22T00:50:02.746Z,12.90
2023-07-22T00:55:06.166Z,12.94
2023-07-22T01:00:08.864Z,12.97
2023-07-22T01:05:13.308Z,12.97
2023-07-22T01:10:15.947Z,12.91
2023-07-22T01:15:19.215Z,12.90
2023-07-22T01:20:21.588Z,12.92
2023-07-22T01:25:24.283Z,12.93
2023-07-22T01:30:31.549Z,12.88
2023-07-22T01:35:33.269Z,12.83
2023-07-22T01:40:35.840Z,12.75
2023-07-22T01:45:39.466Z,12.68
2023-07-22T01:50:41.165Z,12.70
2023-07-22T01:55:42.801Z,12.70
2023-07-22T02:00:44.526Z,12.81
2023-07-22T02:05:46.315Z,12.79
2023-07-22T02:10:47.963Z,12.77
2023-07-22T02:15:49.685Z,12.75
2023-07-22T02:20:51.626Z,12.74
2023-07-22T02:25:54.798Z,12.73
2023-07-22T02:30:56.610Z,12.63
2023-07-22T02:35:58.318Z,12.56
2023-07-22T02:41:08.910Z,12.51
2023-07-22T02:46:10.752Z,12.37
2023-07-22T02:51:12.606Z,12.17
2023-07-22T02:56:14.379Z,11.89
2023-07-22T03:01:16.160Z,11.80
2023-07-22T03:06:17.963Z,11.78
2023-07-22T03:11:19.690Z,11.67
2023-07-22T03:16:21.510Z,11.44
2023-07-22T03:21:23.471Z,11.24
2023-07-22T03:26:25.494Z,11.12
2023-07-22T03:31:27.522Z,11.10
2023-07-22T03:36:29.605Z,10.97
2023-07-22T03:41:31.333Z,10.97
2023-07-22T03:46:33.050Z,11.08
2023-07-22T03:51:34.994Z,11.34
2023-07-22T03:56:36.771Z,11.61
2023-07-22T04:01:38.434Z,11.79
2023-07-22T04:06:40.314Z,11.91
2023-07-22T04:11:42.085Z,12.00
2023-07-22T04:16:43.795Z,11.89
2023-07-22T04:21:45.529Z,11.71
2023-07-22T04:26:47.276Z,11.64
2023-07-22T04:31:48.929Z,11.63
2023-07-22T04:36:50.650Z,11.64
2023-07-22T04:41:52.805Z,11.73
2023-07-22T04:46:54.541Z,12.00
2023-07-22T04:51:56.859Z,12.34
2023-07-22T04:57:00.902Z,12.51
2023-07-22T05:02:02.636Z,12.69
2023-07-22T05:07:04.553Z,12.78
2023-07-22T05:12:06.753Z,12.87
2023-07-22T05:17:08.568Z,13.04
2023-07-22T05:22:10.352Z,13.18
2023-07-22T05:27:12.015Z,13.29
2023-07-22T05:32:31.420Z,13.38
2023-07-22T05:37:34.509Z,13.49
2023-07-22T05:42:36.212Z,13.59
2023-07-22T05:47:37.912Z,13.58
2023-07-22T05:52:39.637Z,13.57
2023-07-22T05:57:41.257Z,13.58
2023-07-22T06:02:43.127Z,13.82
2023-07-22T06:07:45.235Z,13.86
2023-07-22T06:12:48.217Z,13.91
2023-07-22T06:17:49.992Z,14.04
2023-07-22T06:22:51.690Z,14.06
2023-07-22T06:27:55.256Z,14.20
2023-07-22T06:32:57.103Z,14.23
2023-07-22T06:37:58.865Z,14.27
2023-07-22T06:43:00.547Z,14.50
2023-07-22T06:48:02.246Z,14.67
2023-07-22T06:53:04.942Z,14.86
2023-07-22T06:58:06.605Z,14.84
2023-07-22T07:03:08.291Z,14.85
2023-07-22T07:08:13.487Z,15.10
2023-07-22T07:13:15.943Z,15.38
2023-07-22T07:18:18.400Z,15.54
2023-07-22T07:23:20.047Z,15.81
2023-07-22T07:28:21.691Z,15.73
2023-07-22T07:33:23.381Z,15.97
2023-07-22T07:38:25.048Z,16.19
2023-07-22T07:43:27.417Z,16.79
2023-07-22T07:48:29.033Z,16.79
2023-07-22T07:53:30.685Z,16.91
2023-07-22T07:58:32.329Z,17.27
2023-07-22T08:03:36.102Z,17.07
2023-07-22T08:08:38.852Z,16.79
2023-07-22T08:13:42.122Z,17.08
2023-07-22T08:18:44.441Z,17.35
2023-07-22T08:23:47.757Z,17.05
2023-07-22T08:28:49.464Z,16.70
2023-07-22T08:33:51.103Z,17.18
2023-07-22T08:38:52.830Z,17.50
2023-07-22T08:43:56.852Z,17.96
2023-07-22T08:49:01.101Z,17.95
2023-07-22T08:54:11.109Z,18.05
2023-07-22T08:59:15.674Z,18.50
2023-07-22T09:04:17.386Z,18.92
2023-07-22T09:09:19.802Z,19.36
2023-07-22T09:14:35.648Z,19.36
2023-07-22T09:19:38.312Z,19.66
2023-07-22T09:24:39.998Z,19.97
2023-07-22T09:29:41.645Z,19.46
2023-07-22T09:34:56.978Z,19.43
2023-07-22T09:39:58.941Z,19.66
2023-07-22T09:45:00.654Z,19.66
2023-07-22T09:50:02.386Z,20.36
2023-07-22T09:55:04.256Z,20.71
2023-07-22T10:00:09.852Z,20.73
2023-07-22T10:05:16.804Z,20.92
2023-07-22T10:10:24.909Z,20.55
2023-07-22T10:15:29.481Z,21.03
2023-07-22T10:20:31.628Z,21.05
2023-07-22T10:25:34.285Z,21.29
2023-07-22T10:30:36.061Z,20.68
2023-07-22T10:35:45.687Z,20.85
2023-07-22T10:40:54.958Z,21.73
2023-07-22T10:46:06.429Z,22.30
2023-07-22T10:51:11.273Z,22.37
2023-07-22T10:56:18.585Z,22.48
2023-07-22T11:01:26.366Z,22.21
2023-07-22T11:06:28.377Z,21.70
2023-07-22T11:11:39.290Z,21.77
2023-07-22T11:16:43.162Z,23.20
2023-07-22T11:21:46.617Z,23.07
2023-07-22T11:26:48.709Z,25.53
2023-07-22T11:31:52.623Z,25.95
2023-07-22T11:36:56.102Z,27.92
2023-07-22T11:42:00.485Z,32.49
2023-07-22T11:47:09.008Z,27.80
2023-07-22T11:52:12.875Z,28.06
2023-07-22T11:57:21.956Z,27.64
2023-07-22T12:02:25.728Z,23.80
2023-07-22T12:07:35.170Z,21.78
2023-07-22T12:12:38.351Z,20.87
2023-07-22T12:17:47.878Z,20.38
2023-07-22T12:22:50.854Z,20.39
2023-07-22T12:27:53.120Z,20.93
2023-07-22T12:32:54.788Z,21.16
2023-07-22T12:37:56.513Z,20.97
2023-07-22T12:42:59.832Z,22.39
2023-07-22T12:48:03.939Z,23.31
2023-07-22T12:53:05.701Z,23.94
2023-07-22T12:58:07.413Z,23.93
2023-07-22T13:03:09.258Z,24.17
2023-07-22T13:08:11.000Z,25.46
2023-07-22T13:13:12.723Z,27.62
2023-07-22T13:18:17.883Z,26.32
2023-07-22T13:23:19.611Z,26.03
2023-07-22T13:28:21.270Z,24.92
2023-07-22T13:33:23.005Z,25.27
2023-07-22T13:38:24.766Z,25.01
2023-07-22T13:43:28.361Z,26.47
2023-07-22T13:48:30.036Z,25.97
2023-07-22T13:53:31.743Z,24.83
2023-07-22T13:58:33.424Z,23.31
2023-07-22T14:03:35.178Z,22.58
2023-07-22T14:08:37.025Z,23.73
2023-07-22T14:13:38.691Z,24.34
2023-07-22T14:18:40.326Z,23.72
2023-07-22T14:23:43.032Z,22.71
2023-07-22T14:28:44.696Z,22.62
2023-07-22T14:33:46.344Z,22.79
2023-07-22T14:38:47.987Z,25.91
2023-07-22T14:43:49.616Z,31.71
2023-07-22T14:48:51.710Z,27.40
2023-07-22T14:53:53.558Z,24.43
2023-07-22T14:58:56.009Z,23.01
2023-07-22T15:03:57.700Z,23.07
2023-07-22T15:08:59.786Z,24.09
2023-07-22T15:14:01.560Z,24.64
2023-07-22T15:19:03.587Z,27.29
2023-07-22T15:24:06.263Z,26.74
2023-07-22T15:29:08.403Z,24.20
2023-07-22T15:34:10.373Z,24.41
2023-07-22T15:39:12.841Z,23.55
2023-07-22T15:44:14.669Z,23.36
2023-07-22T15:49:16.518Z,25.04
2023-07-22T15:54:19.828Z,24.45
2023-07-22T15:59:21.706Z,23.23
2023-07-22T16:04:23.588Z,23.14
2023-07-22T16:09:25.505Z,24.07
2023-07-22T16:14:27.381Z,23.82
2023-07-22T16:19:29.303Z,23.58
2023-07-22T16:24:31.275Z,23.40
2023-07-22T16:29:35.578Z,22.60
2023-07-22T16:34:37.611Z,21.89
2023-07-22T16:39:39.420Z,21.48
2023-07-22T16:44:41.269Z,21.10
2023-07-22T16:49:43.087Z,20.84
2023-07-22T16:54:44.993Z,20.77
2023-07-22T16:59:46.859Z,20.61
2023-07-22T17:04:48.720Z,20.55
2023-07-22T17:09:50.537Z,20.48
2023-07-22T17:14:52.431Z,20.74
2023-07-22T17:19:54.386Z,21.45
2023-07-22T17:24:56.241Z,21.72
2023-07-22T17:29:58.119Z,21.33
2023-07-22T17:35:00.052Z,20.85
2023-07-22T17:40:02.098Z,20.62
2023-07-22T17:45:04.473Z,20.51
2023-07-22T17:50:06.741Z,20.51
2023-07-22T17:55:09.083Z,20.23
2023-07-22T18:00:11.944Z,20.09
2023-07-22T18:05:13.710Z,19.89
2023-07-22T18:10:15.570Z,19.45
2023-07-22T18:15:17.448Z,19.13
2023-07-22T18:20:19.314Z,18.87
2023-07-22T18:25:21.224Z,18.84
2023-07-22T18:30:23.125Z,18.70
2023-07-22T18:35:25.014Z,18.50
2023-07-22T18:40:26.837Z,18.36
2023-07-22T18:45:31.304Z,18.35
2023-07-22T18:50:33.910Z,18.13
2023-07-22T18:55:39.881Z,17.66
2023-07-22T19:00:43.174Z,17.20
2023-07-22T19:05:45.151Z,16.78
2023-07-22T19:10:47.647Z,16.33
2023-07-22T19:15:52.007Z,16.03
2023-07-22T19:20:59.149Z,15.85
2023-07-22T19:26:04.099Z,15.59
2023-07-22T19:31:08.586Z,15.38
2023-07-22T19:36:12.286Z,15.09
2023-07-22T19:41:14.721Z,14.81
2023-07-22T19:46:17.946Z,14.59
2023-07-22T19:51:20.810Z,14.48
2023-07-22T19:56:22.708Z,14.27
2023-07-22T20:01:24.561Z,14.15
2023-07-22T20:06:26.495Z,13.98
2023-07-22T20:11:28.574Z,13.75
2023-07-22T20:16:30.615Z,13.57
2023-07-22T20:21:32.477Z,13.46
2023-07-22T20:26:34.354Z,13.44
2023-07-22T20:31:36.249Z,13.41
2023-07-22T20:36:38.087Z,13.25
2023-07-22T20:41:39.936Z,13.15
2023-07-22T20:46:42.054Z,13.04
2023-07-22T20:51:43.940Z,13.08
2023-07-22T20:56:47.472Z,13.05
2023-07-22T21:01:49.336Z,12.90
2023-07-22T21:06:51.243Z,12.79
2023-07-22T21:11:53.076Z,12.70
2023-07-22T21:16:55.042Z,12.56
2023-07-22T21:21:56.919Z,12.45
2023-07-22T21:26:58.927Z,12.41
2023-07-22T21:32:01.367Z,12.46
2023-07-22T21:37:03.280Z,12.34
2023-07-22T21:42:06.692Z,12.27
2023-07-22T21:47:08.573Z,12.17
2023-07-22T21:52:10.484Z,12.13
2023-07-22T21:57:12.380Z,12.01
2023-07-22T22:02:14.350Z,12.01
2023-07-22T22:07:16.281Z,11.93
2023-07-22T22:12:18.139Z,11.79
2023-07-22T22:17:20.013Z,11.74
2023-07-22T22:22:21.938Z,11.68
2023-07-22T22:27:23.871Z,11.62
2023-07-22T22:32:25.989Z,11.53
2023-07-22T22:37:28.009Z,11.48
2023-07-22T22:42:29.834Z,11.44
2023-07-22T22:47:31.764Z,11.37
2023-07-22T22:52:35.520Z,11.37
2023-07-22T22:57:37.375Z,11.31
2023-07-22T23:02:39.319Z,11.26
2023-07-22T23:07:41.493Z,11.19
2023-07-22T23:12:43.799Z,11.13
2023-07-22T23:17:45.780Z,11.11
2023-07-22T23:22:47.644Z,11.04
2023-07-22T23:27:49.616Z,11.04
2023-07-22T23:32:51.533Z,10.97
2023-07-22T23:37:53.387Z,10.95
2023-07-22T23:42:55.210Z,10.93
2023-07-22T23:47:57.080Z,10.89
2023-07-22T23:52:59.002Z,10.86
2023-07-22T23:58:04.102Z,10.80
